Terminal Aerodrome Forecast
Issued by NWS

Home | Current Version | Previous Version | Text Only | Print | Product List | Glossary On
Versions: 1 2 3 4 5 6 7 8 9 10 11 12 13 14 15 16 17 18 19 20 21
000
FTAK31 PAJN 231732
TAFAKT
TAF
PAKT 231732Z 2318/2418 14015G22KT P6SM -SHRA BKN020 OVC035
     FM240100 14010KT P6SM -SHRA OVC030
     FM240400 14006KT P6SM VCSH OVC025
     FM241300 14003KT P6SM BKN050
      AMD LTD TO CLD VIS AND WIND 2406/2415=

USA.gov is the U.S. government's official web portal to all federal, state and local government web resources and services.